This is the latest recevied weather packets stored in our database for station/object EA3KZ-1. If no packets are shown the sender has not sent any weather packets the latest 10 day(s).
| Time | Temp. | Humidity | Pressure | Rain* | Wind** | Luminosity | Snow |
|---|---|---|---|---|---|---|---|
| 1777285838 | 22.78° C | 57% | 1014.2 hPa | 0 mm | - | - | - |
| 1777285236 | 22.78° C | 57% | 1014.4 hPa | 0 mm | - | - | - |
| 1777284633 | 22.22° C | 58% | 1014.5 hPa | 0 mm | - | - | - |
| 1777284030 | 22.22° C | 58% | 1014.6 hPa | 0 mm | - | - | - |
| 1777283428 | 22.22° C | 58% | 1014.6 hPa | 0 mm | - | - | - |
| 1777282825 | 21.11° C | 62% | 1014.8 hPa | 0 mm | - | - | - |
| 1777282223 | 20.56° C | 64% | 1014.7 hPa | 0 mm | - | - | - |
| 1777281620 | 20° C | 64% | 1014.8 hPa | 0 mm | - | - | - |
| 1777281017 | 20° C | 64% | 1014.9 hPa | 0 mm | - | - | - |
| 1777280415 | 20° C | 66% | 1014.8 hPa | 0 mm | - | - | - |
| 1777279873 | 19.44° C | 66% | 1014.8 hPa | 0 mm | - | - | - |
| 1777279270 | 19.44° C | 67% | 1014.7 hPa | 0 mm | - | - | - |
| 1777278667 | 19.44° C | 67% | 1014.8 hPa | 0 mm | - | - | - |
| 1777278064 | 19.44° C | 68% | 1014.9 hPa | 0 mm | - | - | - |
| 1777277462 | 19.44° C | 67% | 1014.7 hPa | 0 mm | - | - | - |
| 1777276859 | 19.44° C | 66% | 1014.9 hPa | 0 mm | - | - | - |
| 1777276257 | 19.44° C | 67% | 1014.9 hPa | 0 mm | - | - | - |
| 1777275654 | 20° C | 67% | 1014.7 hPa | 0 mm | - | - | - |
| 1777275051 | 19.44° C | 67% | 1014.6 hPa | 0 mm | - | - | - |
| 1777274449 | 20° C | 65% | 1014.5 hPa | 0 mm | - | - | - |
| 1777273846 | 19.44° C | 65% | 1014.6 hPa | 0 mm | - | - | - |
| 1777273244 | 20° C | 64% | 1014.6 hPa | 0 mm | - | - | - |
| 1777272641 | 20.56° C | 63% | 1014.4 hPa | 0 mm | - | - | - |
| 1777272038 | 20.56° C | 64% | 1014.6 hPa | 0 mm | - | - | - |
| 1777271436 | 18.89° C | 69% | 1014.5 hPa | 0 mm | - | - | - |
* Rain latest hour (hover to see other rain measurements)
** Current wind speed in m/s (hover to see current wind gust speed)